Time;durP1;ratioP1;P1;durP2;ratioP2;P2;SDS_P1;SDS_P2;PMS_P1;PMS_P2;Temp;Humidity;BMP_temperature;BMP_pressure;BME280_temperature;BME280_humidity;BME280_pressure;Samples;Min_cycle;Max_cycle;Signal;HPM_P1;HPM_P2
2022/01/01 00:00:46;;;;;;;;;33.00;29.33;;;;;16.54;63.74;101805.13;6217952;22;45362;-81
2022/01/01 00:03:12;;;;;;;;;40.33;32.67;;;;;16.75;63.65;101798.97;6191600;22;46886;-80
2022/01/01 00:05:38;;;;;;;;;41.00;35.33;;;;;16.64;63.76;101807.84;6191506;22;45320;-81
2022/01/01 00:08:05;;;;;;;;;39.33;34.33;;;;;16.57;63.78;101794.38;6218425;22;45381;-81
2022/01/01 00:10:31;;;;;;;;;39.33;33.33;;;;;16.49;63.90;101797.91;6192502;22;45382;-81
2022/01/01 00:12:57;;;;;;;;;46.00;37.00;;;;;16.55;63.76;101795.28;6217440;22;46484;-81
2022/01/01 00:15:22;;;;;;;;;43.33;38.00;;;;;16.64;63.53;101800.69;6214069;22;45267;-80
2022/01/01 00:17:48;;;;;;;;;37.00;32.67;;;;;16.67;63.58;101799.81;6187131;22;45335;-79
2022/01/01 00:20:14;;;;;;;;;38.67;35.33;;;;;16.72;63.27;101807.00;6215171;22;45473;-80
2022/01/01 00:22:40;;;;;;;;;42.33;36.00;;;;;16.68;63.80;101801.59;6188140;22;47523;-79
2022/01/01 00:25:08;;;;;;;;;36.33;35.33;;;;;16.70;63.67;101799.81;6188293;22;45497;-79
2022/01/01 00:27:34;;;;;;;;;37.67;35.33;;;;;16.48;63.90;101797.03;6187077;22;45502;-79
2022/01/01 00:29:59;;;;;;;;;40.67;35.67;;;;;16.49;63.47;101796.13;6189901;22;45438;-80
2022/01/01 00:32:24;;;;;;;;;35.00;33.33;;;;;16.50;63.96;101802.38;6216339;22;45326;-80
2022/01/01 00:34:50;;;;;;;;;42.67;34.67;;;;;16.44;63.68;101796.97;6188713;22;45349;-80
2022/01/01 00:37:17;;;;;;;;;33.00;30.00;;;;;16.51;63.83;101805.09;6215604;22;45379;-80
2022/01/01 00:39:42;;;;;;;;;37.67;35.00;;;;;16.46;63.83;101795.19;6215724;22;45439;-80
2022/01/01 00:42:08;;;;;;;;;40.00;36.33;;;;;16.40;64.13;101790.69;6214835;22;46093;-80
2022/01/01 00:44:33;;;;;;;;;44.33;37.67;;;;;16.42;63.75;101794.31;6215329;22;45383;-80
2022/01/01 00:46:59;;;;;;;;;38.00;36.00;;;;;16.44;63.97;101802.34;6190042;22;45723;-80
2022/01/01 00:49:25;;;;;;;;;41.33;35.00;;;;;16.39;64.08;101808.59;6190354;22;45546;-80
2022/01/01 00:51:50;;;;;;;;;39.67;36.00;;;;;16.39;63.92;101797.84;6189017;22;46803;-80
2022/01/01 00:54:16;;;;;;;;;46.33;39.67;;;;;16.40;64.03;101801.41;6189978;22;45477;-80
2022/01/01 00:56:41;;;;;;;;;46.67;38.67;;;;;16.43;63.57;101801.47;6217507;22;45447;-80
2022/01/01 00:59:07;;;;;;;;;39.67;36.33;;;;;16.43;63.62;101798.78;6190684;22;45506;-80
2022/01/01 01:01:32;;;;;;;;;36.67;35.00;;;;;16.47;63.80;101797.00;6191401;22;47974;-80
2022/01/01 01:03:58;;;;;;;;;35.67;32.33;;;;;16.37;63.88;101785.31;6189171;22;45457;-80
2022/01/01 01:06:23;;;;;;;;;40.33;36.33;;;;;16.39;63.91;101794.28;6217688;22;45357;-81
2022/01/01 01:08:51;;;;;;;;;38.67;34.00;;;;;16.36;63.54;101792.47;6190112;22;45754;-81
2022/01/01 01:11:17;;;;;;;;;35.33;33.00;;;;;16.35;63.86;101795.13;6217711;22;45323;-80
2022/01/01 01:13:45;;;;;;;;;42.00;33.00;;;;;16.32;63.95;101784.34;6216557;22;45362;-80
2022/01/01 01:16:10;;;;;;;;;43.33;35.33;;;;;16.36;63.75;101787.09;6188119;22;45648;-80
2022/01/01 01:18:35;;;;;;;;;31.33;29.67;;;;;16.30;63.75;101775.41;6216144;22;45427;-80
2022/01/01 01:21:04;;;;;;;;;30.67;28.00;;;;;16.44;63.63;101776.41;6186473;22;47867;-80
2022/01/01 01:23:30;;;;;;;;;32.67;31.67;;;;;16.15;64.10;101773.50;6215478;22;45315;-80
2022/01/01 01:25:56;;;;;;;;;35.00;29.67;;;;;16.24;63.76;101788.78;6214714;22;45566;-79
2022/01/01 01:28:23;;;;;;;;;32.00;30.67;;;;;16.39;63.69;101784.41;6188150;22;45875;-80
2022/01/01 01:30:49;;;;;;;;;32.33;30.67;;;;;16.14;63.69;101778.00;6192076;22;47567;-78
2022/01/01 01:33:15;;;;;;;;;41.00;33.67;;;;;16.35;63.96;101781.72;6191352;22;44832;-78
2022/01/01 01:35:40;;;;;;;;;37.33;30.33;;;;;16.16;63.95;101786.94;6191960;22;45311;-80
2022/01/01 01:38:06;;;;;;;;;31.67;31.67;;;;;16.16;64.00;101778.91;6219296;22;45454;-80
2022/01/01 01:40:31;;;;;;;;;41.00;33.67;;;;;16.10;63.86;101775.28;6218963;22;46044;-81
2022/01/01 01:42:59;;;;;;;;;32.33;30.33;;;;;16.25;63.66;101770.00;6191318;22;45342;-80
2022/01/01 01:45:28;;;;;;;;;39.67;34.67;;;;;16.08;63.79;101780.63;6219170;22;45351;-80
2022/01/01 01:47:53;;;;;;;;;33.67;31.67;;;;;16.02;64.07;101776.97;6192394;22;45348;-80
2022/01/01 01:50:20;;;;;;;;;34.00;32.67;;;;;16.13;63.87;101788.72;6192776;22;47132;-81
2022/01/01 01:52:55;;;;;;;;;37.33;32.67;;;;;16.30;63.49;101786.13;6218956;22;45405;-80
2022/01/01 01:55:21;;;;;;;;;37.67;33.00;;;;;15.94;64.15;101776.94;6191106;22;45421;-80
2022/01/01 02:03:36;;;;;;;;;45.00;39.00;;;;;15.78;64.34;101781.25;6219971;22;45517;-81
2022/01/01 02:06:05;;;;;;;;;48.33;39.00;;;;;15.94;64.21;101787.66;6221414;22;45413;-81
2022/01/01 02:08:31;;;;;;;;;49.33;40.67;;;;;15.64;64.81;101780.19;6220429;22;45435;-81
2022/01/01 02:10:57;;;;;;;;;49.33;38.33;;;;;15.66;64.78;101795.41;6194268;22;48008;-81
2022/01/01 02:13:25;;;;;;;;;53.00;43.00;;;;;15.52;64.70;101780.97;6219612;22;45783;-81
2022/01/01 02:18:16;;;;;;;;;50.67;43.33;;;;;15.51;64.82;101782.75;6215069;22;45386;-81
2022/01/01 02:20:49;;;;;;;;;50.67;42.00;;;;;15.50;64.88;101782.72;6192438;22;46955;-81
2022/01/01 02:23:15;;;;;;;;;54.67;42.67;;;;;15.38;64.84;101783.50;6192084;22;45442;-81
2022/01/01 02:25:42;;;;;;;;;53.00;43.00;;;;;15.35;64.98;101784.38;6191329;22;45823;-81
2022/01/01 02:28:10;;;;;;;;;50.00;41.67;;;;;15.49;64.93;101786.28;6193977;22;44861;-81
2022/01/01 02:30:35;;;;;;;;;58.67;48.00;;;;;15.25;65.25;101787.84;6220287;22;46621;-81
2022/01/01 02:33:02;;;;;;;;;61.33;48.33;;;;;15.40;64.89;101782.63;6191208;22;45373;-81
2022/01/01 02:35:27;;;;;;;;;61.67;48.67;;;;;15.22;65.28;101778.84;6219233;22;45406;-81
2022/01/01 02:37:53;;;;;;;;;53.67;44.33;;;;;15.14;65.14;101774.28;6217957;22;45630;-81
2022/01/01 02:40:18;;;;;;;;;52.33;43.33;;;;;15.14;64.79;101774.28;6217645;22;46245;-81
2022/01/01 02:42:51;;;;;;;;;54.00;43.00;;;;;15.37;65.17;101761.16;6191335;22;45350;-81
2022/01/01 02:45:17;;;;;;;;;56.00;47.00;;;;;15.06;65.30;101762.59;6219563;22;45700;-82
2022/01/01 02:47:44;;;;;;;;;55.67;44.67;;;;;15.04;65.43;101753.63;6190942;22;45423;-81
2022/01/01 02:50:13;;;;;;;;;48.67;42.33;;;;;15.26;65.45;101760.13;6191723;22;46981;-81
2022/01/01 02:52:38;;;;;;;;;47.67;40.00;;;;;14.94;65.70;101763.31;6219468;22;45358;-81
2022/01/01 02:55:06;;;;;;;;;55.33;45.00;;;;;14.99;65.61;101758.94;6192283;22;45489;-81
2022/01/01 02:57:32;;;;;;;;;53.67;41.33;;;;;14.87;65.69;101771.28;6220385;22;45290;-81
2022/01/01 02:59:57;;;;;;;;;51.67;43.00;;;;;14.86;65.56;101773.03;6218051;22;45342;-81
2022/01/01 03:02:29;;;;;;;;;52.67;41.33;;;;;14.87;65.67;101772.19;6190734;22;45758;-81
2022/01/01 03:04:54;;;;;;;;;43.00;36.67;;;;;14.84;65.81;101769.44;6191403;22;45339;-80
2022/01/01 03:07:20;;;;;;;;;46.00;41.00;;;;;14.81;65.79;101766.75;6188964;22;45406;-80
2022/01/01 03:09:47;;;;;;;;;45.33;37.00;;;;;15.02;65.81;101770.56;6217328;22;45259;-81
2022/01/01 03:12:14;;;;;;;;;40.00;36.00;;;;;14.86;65.91;101758.75;6217416;22;45375;-81
2022/01/01 03:14:40;;;;;;;;;45.00;39.00;;;;;14.74;65.85;101773.78;6190462;22;45710;-81
2022/01/01 03:17:06;;;;;;;;;48.33;41.00;;;;;14.86;65.73;101783.75;6218005;22;45774;-81
2022/01/01 03:19:32;;;;;;;;;45.67;38.00;;;;;14.78;65.95;101774.72;6218369;22;45451;-81
2022/01/01 03:22:00;;;;;;;;;41.67;35.33;;;;;14.84;65.73;101758.72;6218459;22;45792;-81
2022/01/01 03:24:26;;;;;;;;;47.33;40.00;;;;;14.68;66.19;101759.41;6216813;22;45343;-81
2022/01/01 03:26:51;;;;;;;;;47.33;40.00;;;;;14.58;66.27;101762.00;6189673;22;45280;-81
2022/01/01 03:29:17;;;;;;;;;38.00;33.67;;;;;14.70;66.26;101781.75;6191072;22;48063;-81
2022/01/01 03:31:42;;;;;;;;;39.67;36.67;;;;;14.66;66.19;101767.41;6191402;22;45444;-80
2022/01/01 03:34:08;;;;;;;;;39.00;34.67;;;;;14.69;66.12;101772.84;6218477;22;45346;-80
2022/01/01 03:36:33;;;;;;;;;42.67;36.33;;;;;14.63;66.18;101764.72;6194026;22;45536;-80
2022/01/01 03:38:59;;;;;;;;;44.67;36.33;;;;;14.57;66.17;101762.84;6190284;22;48103;-80
2022/01/01 03:41:26;;;;;;;;;40.67;36.33;;;;;14.60;66.17;101757.56;6218411;22;45632;-81
2022/01/01 03:43:51;;;;;;;;;43.33;37.00;;;;;14.59;66.14;101762.88;6218937;22;45358;-81
2022/01/01 03:49:49;;;;;;;;;45.33;38.33;;;;;14.54;66.44;101765.47;6209981;22;45362;-81
2022/01/01 03:52:15;;;;;;;;;43.67;37.67;;;;;14.54;66.73;101765.47;6216744;22;45379;-81
2022/01/01 03:54:40;;;;;;;;;42.00;36.33;;;;;14.47;66.64;101763.56;6218600;22;45680;-81
2022/01/01 03:57:06;;;;;;;;;44.67;37.33;;;;;14.48;67.01;101775.16;6218758;22;45609;-81
2022/01/01 04:02:53;;;;;;;;;41.00;36.33;;;;;14.44;66.59;101766.22;6216876;22;45294;-81
2022/01/01 04:05:18;;;;;;;;;34.00;30.67;;;;;14.41;66.46;101758.13;6190404;22;45323;-81
2022/01/01 04:07:44;;;;;;;;;43.67;34.00;;;;;14.50;67.23;101768.06;6191454;22;45461;-81
2022/01/01 04:10:10;;;;;;;;;45.33;39.00;;;;;14.50;67.27;101762.69;6219245;22;46492;-81
2022/01/01 04:12:35;;;;;;;;;49.00;38.33;;;;;14.38;67.35;101769.69;6219390;22;45323;-81
2022/01/01 04:15:03;;;;;;;;;45.67;37.67;;;;;14.58;66.98;101766.41;6189110;22;45815;-80
2022/01/01 04:17:28;;;;;;;;;43.67;39.67;;;;;14.36;67.35;101765.16;6189961;22;45657;-81
2022/01/01 04:19:54;;;;;;;;;44.33;37.00;;;;;14.35;67.03;101758.03;6190575;22;46583;-80
2022/01/01 04:22:19;;;;;;;;;43.00;37.00;;;;;14.38;67.41;101753.63;6216508;22;45359;-81
2022/01/01 04:24:45;;;;;;;;;41.00;37.00;;;;;14.36;67.55;101758.06;6217267;22;45279;-81
2022/01/01 04:27:11;;;;;;;;;45.67;38.33;;;;;14.52;67.43;101751.16;6189025;22;45364;-81
2022/01/01 04:29:38;;;;;;;;;43.67;38.33;;;;;14.26;67.57;101744.50;6218932;22;45393;-81
2022/01/01 04:32:05;;;;;;;;;46.00;37.67;;;;;14.36;67.73;101733.06;6191145;22;45339;-80
2022/01/01 04:34:30;;;;;;;;;35.00;32.00;;;;;14.27;67.63;101733.84;6217007;22;45345;-81
2022/01/01 04:37:03;;;;;;;;;44.33;38.00;;;;;14.17;67.93;101715.84;6190061;22;45454;-81
2022/01/01 04:39:29;;;;;;;;;42.00;37.33;;;;;14.16;68.13;101722.97;6190377;22;46992;-81
2022/01/01 04:41:54;;;;;;;;;39.67;35.00;;;;;14.15;68.19;101742.56;6190528;22;45536;-81
2022/01/01 04:44:19;;;;;;;;;47.33;39.00;;;;;14.08;68.61;101745.13;6191021;22;45487;-80
2022/01/01 04:46:45;;;;;;;;;39.00;35.67;;;;;14.03;68.64;101739.72;6216717;22;45390;-81
2022/01/01 04:49:11;;;;;;;;;47.67;40.33;;;;;14.19;68.17;101735.50;6189122;22;46908;-81
2022/01/01 04:51:37;;;;;;;;;43.67;36.67;;;;;14.06;68.54;101739.78;6188840;22;45416;-82
2022/01/01 04:54:02;;;;;;;;;42.00;35.00;;;;;13.99;68.61;101744.09;6189875;22;45444;-81
2022/01/01 04:56:30;;;;;;;;;39.33;33.00;;;;;14.06;68.30;101749.53;6216939;22;45489;-81
2022/01/01 04:58:56;;;;;;;;;39.33;35.67;;;;;13.92;68.49;101736.88;6194976;22;46804;-81
2022/01/01 05:02:01;;;;;;;;;34.00;28.33;;;;;14.31;67.80;101750.84;6222168;22;45271;-81
2022/01/01 05:04:26;;;;;;;;;41.67;36.33;;;;;13.94;68.54;101747.59;6193664;22;44764;-81
2022/01/01 05:06:52;;;;;;;;;34.67;30.00;;;;;13.92;67.98;101757.38;6222533;22;45794;-81
2022/01/01 05:09:18;;;;;;;;;33.33;28.67;;;;;13.99;68.44;101754.78;6222220;22;45380;-81
2022/01/01 05:11:44;;;;;;;;;38.33;34.00;;;;;13.92;68.41;101765.41;6193912;22;45359;-81
2022/01/01 05:14:11;;;;;;;;;42.00;36.33;;;;;14.04;68.32;101751.28;6191319;22;45396;-81
2022/01/01 05:16:36;;;;;;;;;48.67;37.00;;;;;13.84;68.17;101759.03;6194286;22;45453;-80
2022/01/01 05:19:02;;;;;;;;;47.67;37.67;;;;;13.93;68.17;101764.50;6221907;22;45875;-81
2022/01/01 05:21:31;;;;;;;;;54.33;45.00;;;;;13.89;67.75;101757.31;6196311;22;45422;-81
2022/01/01 05:23:56;;;;;;;;;71.75;55.00;;;;;13.87;68.07;101754.59;6222711;22;45363;-81
2022/01/01 05:26:25;;;;;;;;;76.25;57.00;;;;;14.16;67.94;101752.41;6221815;22;45603;-81
2022/01/01 05:28:51;;;;;;;;;78.25;59.25;;;;;13.89;68.13;101757.31;6194329;22;48351;-81
2022/01/01 05:31:19;;;;;;;;;74.25;58.25;;;;;13.94;68.25;101748.50;6191357;22;45382;-81
2022/01/01 05:33:45;;;;;;;;;74.25;57.50;;;;;13.86;68.19;101746.56;6219403;22;45604;-81
2022/01/01 05:36:10;;;;;;;;;71.50;54.00;;;;;13.84;67.86;101734.94;6219580;22;45343;-81
2022/01/01 05:38:37;;;;;;;;;60.33;48.67;;;;;14.00;67.82;101745.91;6218496;22;46101;-80
2022/01/01 05:41:02;;;;;;;;;55.33;46.00;;;;;13.83;67.87;101746.50;6218782;22;45319;-81
2022/01/01 05:43:27;;;;;;;;;58.67;45.33;;;;;13.88;67.77;101750.19;6218839;22;44707;-81
2022/01/01 05:45:53;;;;;;;;;53.67;43.00;;;;;13.92;67.53;101736.88;6192759;22;45363;-81
2022/01/01 05:48:19;;;;;;;;;51.67;38.67;;;;;13.88;67.56;101735.03;6191752;22;46991;-81
2022/01/01 05:50:45;;;;;;;;;34.33;33.33;;;;;14.12;67.23;101742.53;6218397;22;45534;-81
2022/01/01 05:53:11;;;;;;;;;39.00;33.33;;;;;13.96;67.17;101745.84;6220769;22;45402;-81
2022/01/01 05:55:36;;;;;;;;;33.33;30.00;;;;;14.05;67.10;101747.75;6192747;22;44834;-81
2022/01/01 05:58:02;;;;;;;;;35.33;32.67;;;;;14.02;66.89;101743.28;6192606;22;46719;-81
2022/01/01 06:00:28;;;;;;;;;29.33;26.33;;;;;13.97;66.99;101729.81;6219369;22;45343;-80
2022/01/01 06:02:57;;;;;;;;;36.33;32.67;;;;;14.24;66.63;101735.56;6192475;22;45710;-81
2022/01/01 06:05:23;;;;;;;;;31.00;29.67;;;;;14.06;66.71;101745.13;6192746;22;45272;-81
2022/01/01 06:07:49;;;;;;;;;28.33;25.33;;;;;14.08;66.56;101740.69;6192746;22;46654;-81
2022/01/01 06:10:14;;;;;;;;;27.67;25.00;;;;;14.10;66.52;101746.03;6191788;22;45323;-81
2022/01/01 06:12:40;;;;;;;;;28.67;27.33;;;;;14.13;66.39;101736.28;6218812;22;45421;-81
2022/01/01 06:15:07;;;;;;;;;33.67;27.33;;;;;14.23;66.43;101740.03;6219816;22;45370;-81
2022/01/01 06:17:32;;;;;;;;;26.67;24.33;;;;;13.98;66.28;101741.44;6218420;22;45820;-81
2022/01/01 06:19:58;;;;;;;;;25.00;22.67;;;;;13.94;66.29;101739.56;6219328;22;45315;-81
2022/01/01 06:22:23;;;;;;;;;25.33;22.00;;;;;13.95;66.34;101747.59;6219917;22;45332;-81
2022/01/01 06:24:48;;;;;;;;;27.00;24.67;;;;;13.91;66.27;101745.75;6192311;22;45418;-81
2022/01/01 06:27:15;;;;;;;;;20.00;19.33;;;;;14.06;66.36;101739.78;6193555;22;47133;-81
2022/01/01 06:29:41;;;;;;;;;26.67;26.67;;;;;13.84;66.27;101737.63;6220482;22;45692;-81
2022/01/01 06:32:06;;;;;;;;;29.67;26.33;;;;;13.89;66.05;101739.47;6194272;22;45571;-81
2022/01/01 06:34:32;;;;;;;;;27.33;22.33;;;;;13.73;66.24;101726.72;6191317;22;45422;-81
2022/01/01 06:36:57;;;;;;;;;24.00;22.00;;;;;13.72;66.58;101739.22;6218824;22;45371;-81
2022/01/01 06:39:24;;;;;;;;;26.33;24.33;;;;;13.88;66.37;101732.34;6190120;22;45346;-81
2022/01/01 06:41:49;;;;;;;;;23.67;22.67;;;;;13.64;66.56;101735.50;6191710;22;45455;-81
2022/01/01 06:44:15;;;;;;;;;25.00;22.00;;;;;13.62;66.57;101726.56;6217991;22;45440;-81
2022/01/01 06:46:40;;;;;;;;;21.67;19.67;;;;;13.55;66.88;101724.63;6218769;22;45862;-81
2022/01/01 06:49:05;;;;;;;;;22.67;22.67;;;;;13.58;66.46;101733.63;6218563;22;45373;-81
2022/01/01 06:51:32;;;;;;;;;19.67;17.67;;;;;13.56;66.64;101723.78;6192033;22;45634;-81
2022/01/01 06:53:58;;;;;;;;;25.67;22.00;;;;;13.54;66.86;101733.53;6191011;22;45448;-81
2022/01/01 06:56:23;;;;;;;;;28.00;25.00;;;;;13.55;66.93;101738.00;6217515;22;45601;-81
2022/01/01 06:58:49;;;;;;;;;23.00;21.67;;;;;13.52;66.66;101719.25;6191827;22;45493;-81
2022/01/01 07:01:14;;;;;;;;;25.00;20.33;;;;;13.54;66.71;101723.75;6222031;22;45354;-81
2022/01/01 07:03:39;;;;;;;;;24.33;23.33;;;;;13.52;66.57;101724.59;6219158;22;45383;-81
2022/01/01 07:06:05;;;;;;;;;21.67;19.67;;;;;13.56;66.35;101731.81;6191843;22;46786;-81
2022/01/01 07:08:30;;;;;;;;;27.33;23.00;;;;;13.53;66.08;101726.38;6192387;22;45428;-81
2022/01/01 07:10:55;;;;;;;;;24.00;22.33;;;;;13.54;66.41;101730.88;6192742;22;45327;-81
2022/01/01 07:13:21;;;;;;;;;27.00;25.67;;;;;13.54;66.24;101725.53;6218421;22;45276;-81
2022/01/01 07:15:48;;;;;;;;;24.67;22.00;;;;;13.62;66.33;101720.31;6190825;22;47712;-81
2022/01/01 07:18:13;;;;;;;;;28.00;23.67;;;;;13.43;66.42;101721.75;6160210;23;45380;-81
2022/01/01 07:20:39;;;;;;;;;26.33;21.33;;;;;13.49;66.15;101724.53;6159975;23;45842;-81
2022/01/01 07:23:05;;;;;;;;;27.67;23.67;;;;;13.50;66.02;101726.34;6186710;23;44849;-81
2022/01/01 07:25:30;;;;;;;;;23.67;21.67;;;;;13.42;66.14;101733.31;6186386;23;45960;-81
2022/01/01 07:27:57;;;;;;;;;26.00;24.67;;;;;13.57;66.36;101730.91;6159277;23;45458;-81
2022/01/01 07:30:22;;;;;;;;;27.67;24.00;;;;;13.37;66.23;101731.47;6187550;23;45367;-81
2022/01/01 07:32:48;;;;;;;;;25.67;23.00;;;;;13.46;66.40;101733.41;6160203;23;45366;-81
2022/01/01 07:35:16;;;;;;;;;24.00;20.50;;;;;13.52;66.17;101738.84;6187295;23;45242;-80
2022/01/01 07:37:42;;;;;;;;;24.33;24.33;;;;;13.35;66.56;101738.56;6187225;23;45354;-81
2022/01/01 07:40:11;;;;;;;;;25.00;25.00;;;;;13.51;66.43;101725.47;6159081;23;45455;-81
2022/01/01 07:42:37;;;;;;;;;22.67;20.67;;;;;13.27;66.70;101728.53;6160097;23;45330;-81
2022/01/01 07:45:04;;;;;;;;;20.67;20.00;;;;;13.34;66.42;101726.06;6186721;23;45422;-81
2022/01/01 07:47:29;;;;;;;;;26.33;24.67;;;;;13.17;66.62;101722.16;6159372;23;45422;-81
2022/01/01 07:49:55;;;;;;;;;24.67;24.33;;;;;13.23;66.80;101727.63;6160509;23;45288;-81
2022/01/01 07:53:05;;;;;;;;;20.33;19.00;;;;;13.58;65.99;101724.72;6188253;23;45363;-81
2022/01/01 07:55:31;;;;;;;;;22.33;22.33;;;;;13.22;66.67;101736.47;6159930;23;47226;-81
2022/01/01 07:57:56;;;;;;;;;26.67;24.67;;;;;13.15;66.75;101734.56;6187120;23;45393;-81
2022/01/01 08:00:22;;;;;;;;;26.67;22.00;;;;;13.21;66.46;101734.69;6160291;23;45457;-81
2022/01/01 08:02:48;;;;;;;;;23.00;19.67;;;;;13.19;66.72;101732.00;6160395;23;45407;-81
2022/01/01 08:05:16;;;;;;;;;24.00;21.00;;;;;13.31;66.56;101719.75;6160142;23;47274;-81
2022/01/01 08:07:43;;;;;;;;;26.67;22.00;;;;;13.24;66.48;101732.06;6160862;23;45355;-81
2022/01/01 08:10:09;;;;;;;;;25.33;22.33;;;;;13.18;66.55;101724.81;6135146;23;44845;-81
2022/01/01 08:12:34;;;;;;;;;21.33;21.33;;;;;13.13;66.29;101712.28;6161326;23;45498;-81
2022/01/01 08:15:00;;;;;;;;;20.67;18.00;;;;;13.14;66.41;101706.06;6159481;23;46581;-81
2022/01/01 08:17:25;;;;;;;;;20.33;20.33;;;;;13.20;66.70;101723.09;6178558;22;45538;-80
2022/01/01 08:19:51;;;;;;;;;19.67;19.67;;;;;13.23;66.14;101700.91;6190050;22;45435;-81
2022/01/01 08:22:17;;;;;;;;;21.00;20.00;;;;;13.26;65.99;101711.63;6217291;22;45461;-81
2022/01/01 08:24:43;;;;;;;;;19.00;19.00;;;;;13.27;66.23;101716.09;6218469;22;44914;-81
2022/01/01 08:27:09;;;;;;;;;16.00;16.00;;;;;13.30;66.25;101710.84;6189687;22;45598;-81
2022/01/01 08:29:35;;;;;;;;;23.33;17.33;;;;;13.27;66.03;101723.19;6219214;22;45677;-81
2022/01/01 08:32:00;;;;;;;;;20.00;16.00;;;;;13.23;66.17;101721.34;6219014;22;45363;-81
2022/01/01 08:34:26;;;;;;;;;20.33;20.33;;;;;13.27;66.23;101724.13;6217302;22;45994;-80
2022/01/01 08:36:52;;;;;;;;;23.33;19.67;;;;;13.35;65.92;101711.84;6217834;22;45295;-80
2022/01/01 08:39:18;;;;;;;;;24.00;23.00;;;;;13.32;65.92;101703.75;6191046;22;44766;-80
2022/01/01 08:41:44;;;;;;;;;20.33;18.67;;;;;13.25;65.78;101701.81;6217086;22;45421;-81
2022/01/01 08:44:17;;;;;;;;;25.33;20.67;;;;;13.57;65.39;101717.53;6218115;22;45351;-81
2022/01/01 08:46:43;;;;;;;;;20.00;20.00;;;;;13.24;65.92;101713.38;6217823;22;45367;-80
2022/01/01 08:49:09;;;;;;;;;19.33;17.67;;;;;13.32;66.01;101719.78;6220059;22;45322;-80
2022/01/01 08:51:36;;;;;;;;;27.00;22.00;;;;;13.38;65.44;101722.56;6222378;22;45595;-80
2022/01/01 08:54:02;;;;;;;;;21.00;18.67;;;;;13.38;65.64;101722.56;6195341;22;46957;-79
2022/01/01 08:56:28;;;;;;;;;18.67;16.00;;;;;13.32;65.57;101714.44;6195847;22;45421;-80
2022/01/01 08:58:54;;;;;;;;;24.67;21.00;;;;;13.31;65.51;101715.31;6195428;22;45428;-79
2022/01/01 09:01:19;;;;;;;;;24.33;21.33;;;;;13.46;65.32;101719.16;6221186;22;45830;-80
2022/01/01 09:03:52;;;;;;;;;21.00;19.67;;;;;13.36;65.39;101710.94;6193379;22;47128;-81
2022/01/01 09:06:17;;;;;;;;;21.00;20.00;;;;;13.42;65.38;101719.97;6221444;22;45401;-80
2022/01/01 09:08:43;;;;;;;;;28.67;22.67;;;;;13.51;64.84;101710.34;6194910;22;45381;-81
2022/01/01 09:11:11;;;;;;;;;20.00;20.00;;;;;13.68;64.55;101715.06;6222004;22;45784;-80
2022/01/01 09:13:43;;;;;;;;;20.00;17.67;;;;;13.72;64.77;101695.53;6193853;22;46930;-81
2022/01/01 09:16:14;;;;;;;;;20.00;20.00;;;;;13.85;64.32;101697.53;6194473;22;45524;-81
2022/01/01 09:18:41;;;;;;;;;21.33;20.00;;;;;13.75;64.60;101687.56;6222774;22;45471;-80
2022/01/01 09:21:07;;;;;;;;;21.67;20.00;;;;;13.56;64.41;101673.00;6196071;22;45492;-81
2022/01/01 09:23:33;;;;;;;;;19.00;19.00;;;;;13.56;64.46;101667.66;6195793;22;47777;-80
2022/01/01 09:26:00;;;;;;;;;21.00;20.00;;;;;13.59;64.36;101659.66;6222328;22;45659;-81
2022/01/01 09:28:27;;;;;;;;;13.00;11.00;;;;;13.52;64.66;101653.34;6193115;22;45355;-80
2022/01/01 09:30:53;;;;;;;;;18.67;18.67;;;;;13.51;64.69;101655.97;6194199;22;45359;-80
2022/01/01 09:33:18;;;;;;;;;23.67;21.67;;;;;13.53;64.61;101662.25;6192544;22;47863;-81
2022/01/01 09:35:46;;;;;;;;;22.33;19.67;;;;;13.48;64.67;101648.81;6192300;22;45885;-83
2022/01/01 09:38:13;;;;;;;;;18.33;15.67;;;;;13.69;64.37;101658.06;6219595;22;45371;-80
2022/01/01 09:40:39;;;;;;;;;21.67;19.33;;;;;13.51;64.52;101655.97;6219063;22;45809;-80
2022/01/01 09:43:05;;;;;;;;;27.33;21.33;;;;;13.70;64.40;101655.41;6219760;22;45433;-81
2022/01/01 09:45:31;;;;;;;;;15.67;14.67;;;;;13.58;64.31;101652.53;6194777;22;45159;-80
2022/01/01 09:48:00;;;;;;;;;20.00;19.00;;;;;13.83;63.95;101652.94;6195023;22;45359;-80
2022/01/01 09:50:25;;;;;;;;;18.00;16.33;;;;;13.69;64.28;101669.63;6195118;22;45400;-81
2022/01/01 09:52:51;;;;;;;;;21.00;21.00;;;;;13.72;64.19;101667.03;6222516;22;45303;-80
2022/01/01 09:55:16;;;;;;;;;19.00;17.00;;;;;13.72;63.95;101661.69;6193088;22;45474;-81
2022/01/01 09:57:42;;;;;;;;;20.67;19.67;;;;;13.78;63.96;101653.75;6196663;22;45276;-81
2022/01/01 10:00:09;;;;;;;;;15.33;14.00;;;;;14.03;63.45;101659.47;6193578;22;45438;-81
2022/01/01 10:02:34;;;;;;;;;21.00;20.33;;;;;13.86;63.84;101659.22;6193172;22;48262;-81
2022/01/01 10:05:05;;;;;;;;;19.33;19.33;;;;;14.18;63.40;101666.84;6219846;22;44642;-80
2022/01/01 10:07:31;;;;;;;;;22.33;16.00;;;;;13.92;63.21;101667.34;6217237;22;45379;-80
2022/01/01 10:09:57;;;;;;;;;12.00;10.67;;;;;13.96;63.38;101662.94;6218253;22;45733;-80
2022/01/01 10:12:38;;;;;;;;;11.67;11.67;;;;;14.30;62.76;101658.97;6193142;22;47013;-81
2022/01/01 10:15:07;;;;;;;;;20.00;17.00;;;;;14.35;62.68;101665.25;6194418;22;45713;-81
2022/01/01 10:17:33;;;;;;;;;18.67;18.33;;;;;14.17;63.20;101673.03;6216589;22;45687;-81
2022/01/01 10:19:58;;;;;;;;;21.67;19.33;;;;;14.24;62.76;101663.31;6193425;22;45581;-81
2022/01/01 10:22:24;;;;;;;;;16.67;16.67;;;;;14.37;62.53;101666.19;6191803;22;47288;-80
2022/01/01 10:28:01;;;;;;;;;18.33;15.00;;;;;14.68;61.68;101679.97;6219779;22;44737;-80
2022/01/01 10:30:32;;;;;;;;;17.67;14.00;;;;;14.76;61.95;101674.72;6218177;22;45366;-81
2022/01/01 10:33:14;;;;;;;;;13.33;13.33;;;;;14.90;61.01;101667.75;6190034;22;47724;-81
2022/01/01 10:39:12;;;;;;;;;12.33;12.33;;;;;15.10;60.98;101669.75;6215698;22;45442;-81
2022/01/01 10:41:45;;;;;;;;;16.33;14.00;;;;;15.17;60.79;101674.31;6215628;22;45490;-80
2022/01/01 10:44:12;;;;;;;;;14.00;11.33;;;;;14.81;61.33;101656.94;6215849;22;45683;-80
2022/01/01 10:46:38;;;;;;;;;16.00;15.00;;;;;14.94;60.75;101672.25;6192523;22;45432;-81
2022/01/01 10:49:50;;;;;;;;;18.00;16.00;;;;;15.32;60.23;101674.44;6220200;22;45134;-81
2022/01/01 10:52:23;;;;;;;;;12.67;12.67;;;;;15.32;60.66;101670.88;6192145;22;45588;-81
2022/01/01 10:54:49;;;;;;;;;11.33;11.33;;;;;15.24;60.22;101676.16;6193009;22;48228;-81
2022/01/01 10:57:21;;;;;;;;;15.00;13.33;;;;;15.50;60.55;101678.19;6219862;22;45434;-81
2022/01/01 10:59:48;;;;;;;;;14.67;14.33;;;;;15.46;59.58;101668.31;6192661;22;45375;-80
2022/01/01 11:02:14;;;;;;;;;17.00;14.67;;;;;15.38;59.77;101668.25;6190475;22;45802;-80
2022/01/01 11:04:41;;;;;;;;;14.33;13.00;;;;;15.49;59.30;101668.31;6189203;22;47047;-81
2022/01/01 11:07:08;;;;;;;;;13.67;12.00;;;;;15.54;59.17;101675.53;6190198;22;45428;-81
2022/01/01 11:09:34;;;;;;;;;15.33;13.67;;;;;15.49;59.96;101665.63;6217457;22;45714;-81
2022/01/01 11:12:03;;;;;;;;;13.67;13.67;;;;;15.68;59.61;101653.31;6217471;22;45757;-81
2022/01/01 11:14:32;;;;;;;;;13.33;13.33;;;;;15.86;59.31;101664.19;6217301;22;45373;-81
2022/01/01 11:17:11;;;;;;;;;12.67;12.33;;;;;15.94;59.43;101658.88;6216438;22;45361;-80
2022/01/01 11:19:37;;;;;;;;;12.00;11.00;;;;;15.56;58.72;101654.09;6191174;22;45673;-81
2022/01/01 11:22:03;;;;;;;;;17.00;16.00;;;;;15.58;59.33;101663.06;6217611;22;45346;-80
2022/01/01 11:24:31;;;;;;;;;17.33;14.00;;;;;15.68;58.46;101653.31;6191973;22;48150;-80
2022/01/01 11:26:57;;;;;;;;;16.33;15.67;;;;;15.56;58.47;101649.63;6192113;22;45402;-81
2022/01/01 11:29:22;;;;;;;;;17.00;14.33;;;;;15.55;58.88;101636.19;6217152;22;44809;-81